createdAt,value
2019-02-17T00:00:55.773Z,50.10
2019-02-17T00:03:27.402Z,49.81
2019-02-17T00:05:58.355Z,49.98
2019-02-17T00:08:29.326Z,49.87
2019-02-17T00:11:00.290Z,50.19
2019-02-17T00:13:31.768Z,50.58
2019-02-17T00:16:02.730Z,50.39
2019-02-17T00:18:33.785Z,50.34
2019-02-17T00:21:04.780Z,50.31
2019-02-17T00:23:36.036Z,50.48
2019-02-17T00:26:07.069Z,50.54
2019-02-17T00:28:38.057Z,51.07
2019-02-17T00:31:09.262Z,51.27
2019-02-17T00:33:40.235Z,51.18
2019-02-17T00:36:11.270Z,50.63
2019-02-17T00:38:42.835Z,50.77
2019-02-17T00:41:13.801Z,51.30
2019-02-17T00:43:44.779Z,51.09
2019-02-17T00:46:16.007Z,50.98
2019-02-17T00:48:47.589Z,51.07
2019-02-17T00:51:19.131Z,51.03
2019-02-17T00:53:50.376Z,51.14
2019-02-17T00:56:21.341Z,51.09
2019-02-17T00:58:53.750Z,51.22
2019-02-17T01:01:24.711Z,51.16
2019-02-17T01:03:55.742Z,51.10
2019-02-17T01:06:27.027Z,50.93
2019-02-17T01:08:57.990Z,51.15
2019-02-17T01:11:28.957Z,51.24
2019-02-17T01:14:00.247Z,51.85
2019-02-17T01:16:31.198Z,51.97
2019-02-17T01:19:02.962Z,51.96
2019-02-17T01:21:33.916Z,51.87
2019-02-17T01:24:05.158Z,51.29
2019-02-17T01:26:36.115Z,51.61
2019-02-17T01:29:07.089Z,51.68
2019-02-17T01:31:38.352Z,51.88
2019-02-17T01:34:11.705Z,51.76
2019-02-17T01:36:42.697Z,51.97
2019-02-17T01:39:14.778Z,52.11
2019-02-17T01:41:45.808Z,52.59
2019-02-17T01:44:16.873Z,52.54
2019-02-17T01:46:47.966Z,52.31
2019-02-17T01:49:18.951Z,52.72
2019-02-17T01:51:49.980Z,52.80
2019-02-17T01:54:20.963Z,52.70
2019-02-17T01:56:52.183Z,52.66
2019-02-17T01:59:30.369Z,52.68
2019-02-17T02:01:56.687Z,52.53
2019-02-17T02:04:27.722Z,52.73
2019-02-17T02:06:59.082Z,52.86
2019-02-17T02:09:30.068Z,52.77
2019-02-17T02:12:01.037Z,52.63
2019-02-17T02:14:32.629Z,52.45
2019-02-17T02:17:04.067Z,52.56
2019-02-17T02:19:35.087Z,52.37
2019-02-17T02:22:06.048Z,52.69
2019-02-17T02:24:38.291Z,52.70
2019-02-17T02:27:09.938Z,52.96
2019-02-17T02:29:41.617Z,53.04
2019-02-17T02:32:13.101Z,53.24
2019-02-17T02:34:44.426Z,53.34
2019-02-17T02:37:15.905Z,53.87
2019-02-17T02:39:47.218Z,53.74
2019-02-17T02:42:18.688Z,53.36
2019-02-17T02:44:50.163Z,53.68
2019-02-17T02:47:21.130Z,53.68
2019-02-17T02:49:52.615Z,53.69
2019-02-17T02:52:24.077Z,53.89
2019-02-17T02:54:55.046Z,53.98
2019-02-17T02:57:26.015Z,53.73
2019-02-17T02:59:57.294Z,53.99
2019-02-17T03:02:28.767Z,54.50
2019-02-17T03:04:59.743Z,54.16
2019-02-17T03:07:31.030Z,54.37
2019-02-17T03:10:02.627Z,54.56
2019-02-17T03:12:33.633Z,54.71
2019-02-17T03:15:05.931Z,54.60
2019-02-17T03:17:37.142Z,54.53
2019-02-17T03:20:09.152Z,54.38
2019-02-17T03:22:40.098Z,53.98
2019-02-17T03:25:11.504Z,53.80
2019-02-17T03:27:42.689Z,53.84
2019-02-17T03:30:14.104Z,53.64
2019-02-17T03:32:45.335Z,53.61
2019-02-17T03:35:16.297Z,53.53
2019-02-17T03:37:47.566Z,53.77
2019-02-17T03:40:19.123Z,53.94
2019-02-17T03:42:50.491Z,53.89
2019-02-17T03:45:22.279Z,53.74
2019-02-17T03:47:53.883Z,53.76
2019-02-17T03:50:25.386Z,54.10
2019-02-17T03:52:56.339Z,53.86
2019-02-17T03:55:27.673Z,53.64
2019-02-17T03:57:58.635Z,53.51
2019-02-17T04:00:29.653Z,53.80
2019-02-17T04:03:00.608Z,54.10
2019-02-17T04:05:31.936Z,53.70
2019-02-17T04:08:02.893Z,53.32
2019-02-17T04:10:33.932Z,53.62
2019-02-17T04:13:05.572Z,53.47
2019-02-17T04:15:37.442Z,53.51
2019-02-17T04:18:08.786Z,52.97
2019-02-17T04:20:40.032Z,53.65
2019-02-17T04:23:12.205Z,53.55
2019-02-17T04:25:44.004Z,53.56
2019-02-17T04:28:18.670Z,53.63
2019-02-17T04:30:49.756Z,53.30
2019-02-17T04:33:21.141Z,53.65
2019-02-17T04:35:52.656Z,53.84
2019-02-17T04:38:24.806Z,54.23
2019-02-17T04:40:56.107Z,53.96
2019-02-17T04:43:27.086Z,54.36
2019-02-17T04:45:58.434Z,54.59
2019-02-17T04:48:30.616Z,54.77
2019-02-17T04:51:02.135Z,54.20
2019-02-17T04:53:33.910Z,54.23
2019-02-17T04:56:05.028Z,53.71
2019-02-17T04:58:36.303Z,53.40
2019-02-17T05:01:07.467Z,54.13
2019-02-17T05:03:38.899Z,53.69
2019-02-17T05:06:10.262Z,53.03
2019-02-17T05:08:41.739Z,53.45
2019-02-17T05:11:12.953Z,53.57
2019-02-17T05:13:44.406Z,53.36
2019-02-17T05:16:15.535Z,53.49
2019-02-17T05:18:46.543Z,54.13
2019-02-17T05:21:18.033Z,53.74
2019-02-17T05:23:49.279Z,53.92
2019-02-17T05:26:20.624Z,53.83
2019-02-17T05:28:51.710Z,54.10
2019-02-17T05:31:22.684Z,54.14
2019-02-17T05:33:54.164Z,54.47
2019-02-17T05:36:25.471Z,54.37
2019-02-17T05:38:56.842Z,54.46
2019-02-17T05:41:28.544Z,54.86
2019-02-17T05:44:00.080Z,55.10
2019-02-17T05:46:31.295Z,54.86
2019-02-17T05:49:02.503Z,55.15
2019-02-17T05:51:33.710Z,54.98
2019-02-17T05:54:04.981Z,55.16
2019-02-17T05:56:36.773Z,54.76
2019-02-17T05:59:09.076Z,55.14
2019-02-17T06:01:40.836Z,55.58
2019-02-17T06:04:12.054Z,55.78
2019-02-17T06:06:43.325Z,55.62
2019-02-17T06:09:14.656Z,55.19
2019-02-17T06:11:45.914Z,55.38
2019-02-17T06:14:17.160Z,55.95
2019-02-17T06:16:48.628Z,55.45
2019-02-17T06:19:19.968Z,55.39
2019-02-17T06:21:51.213Z,55.51
2019-02-17T06:24:23.305Z,54.88
2019-02-17T06:26:55.258Z,54.78
2019-02-17T06:29:26.654Z,54.90
2019-02-17T06:31:58.246Z,55.17
2019-02-17T06:34:29.289Z,55.13
2019-02-17T06:37:00.516Z,55.04
2019-02-17T06:39:31.478Z,55.41
2019-02-17T06:42:02.928Z,55.28
2019-02-17T06:44:35.110Z,54.87
2019-02-17T06:47:37.414Z,54.33
2019-02-17T06:50:10.264Z,54.31
2019-02-17T06:52:41.572Z,54.34
2019-02-17T06:55:26.180Z,54.70
2019-02-17T06:57:57.325Z,54.23
2019-02-17T07:00:34.379Z,54.68
2019-02-17T07:03:06.174Z,54.50
2019-02-17T07:06:14.828Z,54.71
2019-02-17T07:08:46.150Z,54.65
2019-02-17T07:11:17.390Z,54.32
2019-02-17T07:13:49.191Z,54.12
2019-02-17T07:16:22.145Z,53.94
2019-02-17T07:18:54.680Z,53.85
2019-02-17T07:21:25.958Z,53.92
2019-02-17T07:23:57.590Z,54.37
2019-02-17T07:26:29.335Z,53.99
2019-02-17T07:29:00.695Z,54.06
2019-02-17T07:31:34.942Z,53.46
2019-02-17T07:34:05.447Z,53.30
2019-02-17T07:36:36.682Z,52.52
2019-02-17T07:39:08.122Z,51.81
2019-02-17T07:41:39.913Z,50.91
2019-02-17T07:44:12.114Z,50.33
2019-02-17T07:46:43.426Z,50.30
2019-02-17T07:49:14.479Z,49.85
2019-02-17T07:51:45.786Z,50.73
2019-02-17T07:54:17.416Z,50.09
2019-02-17T07:56:48.555Z,50.29
2019-02-17T07:59:19.510Z,49.57
2019-02-17T08:01:50.720Z,48.98
2019-02-17T08:04:22.138Z,48.67
2019-02-17T08:06:53.201Z,48.45
2019-02-17T08:09:24.837Z,48.24
2019-02-17T08:11:56.378Z,48.30
2019-02-17T08:14:27.599Z,47.76
2019-02-17T08:16:59.061Z,47.39
2019-02-17T08:19:30.260Z,47.41
2019-02-17T08:22:01.236Z,46.80
2019-02-17T08:24:32.425Z,46.93
2019-02-17T08:27:04.668Z,46.49
2019-02-17T08:29:36.241Z,46.70
2019-02-17T08:32:07.509Z,46.86
2019-02-17T08:34:38.458Z,45.16
2019-02-17T08:37:09.480Z,45.45
2019-02-17T08:39:41.025Z,45.54
2019-02-17T08:42:12.669Z,44.61
2019-02-17T08:44:43.979Z,44.24
2019-02-17T08:47:16.280Z,43.53
2019-02-17T08:49:47.339Z,43.11
2019-02-17T08:52:18.559Z,43.00
2019-02-17T08:54:49.634Z,43.42
2019-02-17T08:57:20.634Z,43.17
2019-02-17T08:59:51.898Z,42.92
2019-02-17T09:02:23.244Z,42.70
2019-02-17T09:04:54.593Z,42.51
2019-02-17T09:07:25.855Z,42.40
2019-02-17T09:09:57.080Z,41.67
2019-02-17T09:12:28.150Z,41.26
2019-02-17T09:14:59.369Z,40.57
2019-02-17T09:17:30.370Z,40.98
2019-02-17T09:20:01.966Z,41.23
2019-02-17T09:22:34.104Z,41.63
2019-02-17T09:25:05.950Z,41.33
2019-02-17T09:27:37.860Z,41.34
2019-02-17T09:30:15.163Z,40.64
2019-02-17T09:32:46.629Z,40.75
2019-02-17T09:35:18.452Z,41.18
2019-02-17T09:37:49.806Z,40.54
2019-02-17T09:40:21.476Z,40.97
2019-02-17T09:42:53.547Z,40.88
2019-02-17T09:45:25.456Z,39.71
2019-02-17T09:47:57.249Z,39.33
2019-02-17T09:50:28.491Z,39.97
2019-02-17T09:53:00.426Z,39.36
2019-02-17T09:55:31.397Z,39.57
2019-02-17T09:58:02.668Z,39.24
2019-02-17T10:00:33.987Z,39.17
2019-02-17T10:03:05.048Z,37.93
2019-02-17T10:05:36.305Z,37.72
2019-02-17T10:08:07.564Z,38.52
2019-02-17T10:10:38.530Z,38.03
2019-02-17T10:13:10.011Z,36.98
2019-02-17T10:15:41.055Z,37.36
2019-02-17T10:18:12.441Z,37.28
2019-02-17T10:20:44.374Z,37.41
2019-02-17T10:23:15.655Z,37.29
2019-02-17T10:25:46.667Z,36.74
2019-02-17T10:28:17.745Z,36.79
2019-02-17T10:30:49.341Z,36.21
2019-02-17T10:33:20.554Z,36.88
2019-02-17T10:35:51.858Z,36.77
2019-02-17T10:38:23.325Z,36.25
2019-02-17T10:40:55.174Z,36.00
2019-02-17T10:43:26.745Z,36.22
2019-02-17T10:45:58.033Z,35.50
2019-02-17T10:48:29.494Z,36.12
2019-02-17T10:51:00.962Z,35.87
2019-02-17T10:53:32.133Z,35.12
2019-02-17T10:56:03.093Z,35.01
2019-02-17T10:58:35.692Z,34.92
2019-02-17T11:01:07.074Z,33.79
2019-02-17T11:03:38.068Z,33.26
2019-02-17T11:06:09.356Z,33.54
2019-02-17T11:08:40.924Z,33.50
2019-02-17T11:11:12.795Z,33.22
2019-02-17T11:13:44.123Z,32.69
2019-02-17T11:16:15.181Z,32.61
2019-02-17T11:18:46.521Z,33.01
2019-02-17T11:21:17.492Z,32.89
2019-02-17T11:23:48.749Z,32.42
2019-02-17T11:26:20.067Z,32.44
2019-02-17T11:28:51.639Z,31.31
2019-02-17T11:31:23.838Z,30.68
2019-02-17T11:33:55.936Z,30.81
2019-02-17T11:36:27.219Z,29.18
2019-02-17T11:38:59.796Z,29.95
2019-02-17T11:41:31.834Z,30.52
2019-02-17T11:44:03.381Z,30.29
2019-02-17T11:46:34.701Z,28.99
2019-02-17T11:49:05.724Z,27.93
2019-02-17T11:51:37.695Z,27.75
2019-02-17T11:54:08.814Z,28.43
2019-02-17T11:56:40.427Z,27.68
2019-02-17T11:59:12.739Z,27.38
2019-02-17T12:01:43.784Z,27.56
2019-02-17T12:04:15.609Z,26.53
2019-02-17T12:06:47.066Z,25.94
2019-02-17T12:09:18.338Z,25.74
2019-02-17T12:11:49.543Z,26.26
2019-02-17T12:14:21.009Z,26.77
2019-02-17T12:16:52.482Z,25.76
2019-02-17T12:19:23.753Z,24.97
2019-02-17T12:22:00.788Z,24.58
2019-02-17T12:24:41.576Z,24.68
2019-02-17T12:27:30.499Z,24.36
2019-02-17T12:30:06.202Z,24.97
2019-02-17T12:32:39.900Z,26.38
2019-02-17T12:35:11.027Z,25.35
2019-02-17T12:37:41.984Z,24.53
2019-02-17T12:40:13.800Z,23.73
2019-02-17T12:42:45.112Z,23.25
2019-02-17T12:45:18.356Z,23.98
2019-02-17T12:47:57.455Z,23.76
2019-02-17T12:50:23.659Z,23.40
2019-02-17T12:52:56.850Z,24.52
2019-02-17T12:55:28.768Z,23.63
2019-02-17T12:57:59.976Z,23.91
2019-02-17T13:00:31.363Z,23.12
2019-02-17T13:03:02.577Z,22.75
2019-02-17T13:05:33.557Z,23.22
2019-02-17T13:08:04.802Z,24.42
2019-02-17T13:10:36.084Z,23.99
2019-02-17T13:13:07.627Z,23.94
2019-02-17T13:15:38.963Z,21.75
2019-02-17T13:18:09.978Z,21.69
2019-02-17T13:20:41.279Z,20.90
2019-02-17T13:23:13.098Z,21.07
2019-02-17T13:25:44.445Z,19.30
2019-02-17T13:28:16.074Z,20.02
2019-02-17T13:30:48.874Z,20.65
2019-02-17T13:33:20.230Z,21.45
2019-02-17T13:35:52.506Z,22.63
2019-02-17T13:38:23.811Z,24.76
2019-02-17T13:40:55.802Z,26.68
2019-02-17T13:43:27.361Z,27.45
2019-02-17T13:45:58.894Z,29.60
2019-02-17T13:48:30.925Z,30.29
2019-02-17T13:51:02.436Z,29.67
2019-02-17T13:53:33.938Z,30.16
2019-02-17T13:56:05.025Z,30.65
2019-02-17T13:58:36.316Z,31.19
2019-02-17T14:01:07.550Z,31.55
2019-02-17T14:03:48.228Z,31.33
2019-02-17T14:06:11.530Z,31.01
2019-02-17T14:08:42.792Z,31.14
2019-02-17T14:11:14.314Z,31.32
2019-02-17T14:13:46.009Z,31.16
2019-02-17T14:16:17.662Z,31.68
2019-02-17T14:18:49.177Z,32.16
2019-02-17T14:21:20.580Z,32.11
2019-02-17T14:23:52.299Z,32.63
2019-02-17T14:26:23.578Z,32.83
2019-02-17T14:28:55.911Z,33.21
2019-02-17T14:31:27.783Z,34.00
2019-02-17T14:34:00.359Z,33.96
2019-02-17T14:36:31.498Z,34.10
2019-02-17T14:39:02.518Z,34.32
2019-02-17T14:41:35.471Z,34.37
2019-02-17T14:44:06.591Z,33.96
2019-02-17T14:46:38.110Z,34.25
2019-02-17T14:49:09.073Z,34.76
2019-02-17T14:51:40.624Z,35.00
2019-02-17T14:54:13.211Z,34.83
2019-02-17T14:56:44.585Z,35.12
2019-02-17T14:59:15.566Z,35.44
2019-02-17T15:01:46.951Z,35.06
2019-02-17T15:04:17.898Z,34.90
2019-02-17T15:06:49.198Z,34.74
2019-02-17T15:09:20.743Z,34.71
2019-02-17T15:11:52.633Z,34.72
2019-02-17T15:14:24.151Z,34.47
2019-02-17T15:16:56.288Z,34.12
2019-02-17T15:19:27.331Z,34.56
2019-02-17T15:21:58.469Z,34.49
2019-02-17T15:24:30.396Z,34.57
2019-02-17T15:27:01.572Z,34.64
2019-02-17T15:29:32.913Z,35.03
2019-02-17T15:32:04.428Z,35.02
2019-02-17T15:34:35.537Z,35.24
2019-02-17T15:37:07.300Z,35.15
2019-02-17T15:39:38.952Z,35.52
2019-02-17T15:42:11.310Z,35.82
2019-02-17T15:44:42.432Z,35.71
2019-02-17T15:47:13.679Z,35.73
2019-02-17T15:49:44.643Z,35.72
2019-02-17T15:52:15.946Z,35.53
2019-02-17T15:54:47.476Z,35.65
2019-02-17T15:57:18.476Z,35.99
2019-02-17T15:59:49.924Z,36.46
2019-02-17T16:02:21.181Z,36.65
2019-02-17T16:04:52.563Z,36.59
2019-02-17T16:07:23.579Z,36.17
2019-02-17T16:09:54.785Z,36.05
2019-02-17T16:12:26.613Z,36.05
2019-02-17T16:14:57.857Z,35.99
2019-02-17T16:17:29.112Z,35.75
2019-02-17T16:20:00.777Z,35.39
2019-02-17T16:22:32.066Z,35.22
2019-02-17T16:25:03.032Z,35.70
2019-02-17T16:27:34.351Z,35.48
2019-02-17T16:30:06.338Z,35.05
2019-02-17T16:32:37.386Z,35.15
2019-02-17T16:35:08.586Z,35.03
2019-02-17T16:37:39.614Z,34.87
2019-02-17T16:40:12.566Z,34.70
2019-02-17T16:42:43.592Z,34.66
2019-02-17T16:45:15.723Z,34.76
2019-02-17T16:47:47.070Z,34.77
2019-02-17T16:50:19.622Z,35.04
2019-02-17T16:52:51.411Z,35.17
2019-02-17T16:55:23.495Z,35.15
2019-02-17T16:57:54.562Z,35.60
2019-02-17T17:00:27.072Z,35.41
2019-02-17T17:02:58.215Z,35.48
2019-02-17T17:05:29.176Z,35.24
2019-02-17T17:08:00.434Z,35.68
2019-02-17T17:10:31.422Z,36.20
2019-02-17T17:13:02.540Z,35.92
2019-02-17T17:15:34.017Z,36.20
2019-02-17T17:18:05.398Z,35.91
2019-02-17T17:20:36.933Z,36.10
2019-02-17T17:23:09.718Z,35.97
2019-02-17T17:25:40.784Z,36.19
2019-02-17T17:28:12.316Z,36.50
2019-02-17T17:30:43.661Z,36.97
2019-02-17T17:33:15.740Z,37.30
2019-02-17T17:35:46.706Z,37.25
2019-02-17T17:38:18.051Z,37.40
2019-02-17T17:40:49.072Z,37.62
2019-02-17T17:43:20.575Z,38.15
2019-02-17T17:45:52.061Z,38.66
2019-02-17T17:48:24.287Z,38.92
2019-02-17T17:50:57.524Z,39.50
2019-02-17T17:53:28.600Z,39.86
2019-02-17T17:56:00.178Z,39.87
2019-02-17T17:58:31.466Z,39.97
2019-02-17T18:01:03.020Z,40.06
2019-02-17T18:03:34.029Z,40.47
2019-02-17T18:06:05.457Z,40.53
2019-02-17T18:08:36.792Z,40.84
2019-02-17T18:11:08.108Z,40.75
2019-02-17T18:13:40.339Z,40.73
2019-02-17T18:16:11.774Z,40.88
2019-02-17T18:18:43.670Z,41.25
2019-02-17T18:21:15.270Z,41.02
2019-02-17T18:23:47.134Z,41.12
2019-02-17T18:26:18.276Z,41.59
2019-02-17T18:28:49.286Z,41.84
2019-02-17T18:31:20.342Z,42.16
2019-02-17T18:33:51.421Z,42.68
2019-02-17T18:36:22.539Z,43.50
2019-02-17T18:38:53.889Z,42.96
2019-02-17T18:41:25.564Z,42.76
2019-02-17T18:43:56.699Z,43.17
2019-02-17T18:46:27.626Z,43.40
2019-02-17T18:48:59.764Z,42.97
2019-02-17T18:51:31.028Z,43.17
2019-02-17T18:54:03.046Z,43.11
2019-02-17T18:56:34.658Z,43.04
2019-02-17T18:59:06.395Z,43.08
2019-02-17T19:01:38.278Z,43.26
2019-02-17T19:04:09.289Z,43.55
2019-02-17T19:06:40.313Z,43.49
2019-02-17T19:09:11.335Z,44.00
2019-02-17T19:11:42.741Z,43.54
2019-02-17T19:14:13.894Z,43.81
2019-02-17T19:16:45.210Z,44.10
2019-02-17T19:19:16.258Z,44.31
2019-02-17T19:21:47.579Z,44.33
2019-02-17T19:24:19.475Z,44.26
2019-02-17T19:26:51.021Z,44.13
2019-02-17T19:29:22.434Z,44.78
2019-02-17T19:31:54.723Z,44.54
2019-02-17T19:34:26.536Z,44.59
2019-02-17T19:36:59.128Z,44.78
2019-02-17T19:39:30.133Z,44.79
2019-02-17T19:42:01.868Z,44.83
2019-02-17T19:44:33.374Z,44.42
2019-02-17T19:47:04.881Z,44.55
2019-02-17T19:49:36.818Z,44.55
2019-02-17T19:52:08.378Z,44.59
2019-02-17T19:54:39.392Z,45.01
2019-02-17T19:57:11.141Z,44.19
2019-02-17T19:59:42.176Z,43.87
2019-02-17T20:02:14.094Z,43.79
2019-02-17T20:04:48.581Z,43.73
2019-02-17T20:07:19.897Z,43.83
2019-02-17T20:09:50.909Z,43.85
2019-02-17T20:12:21.964Z,43.79
2019-02-17T20:14:53.038Z,43.99
2019-02-17T20:17:24.544Z,43.89
2019-02-17T20:19:57.303Z,44.27
2019-02-17T20:22:28.879Z,44.29
2019-02-17T20:25:00.325Z,44.12
2019-02-17T20:27:31.887Z,44.29
2019-02-17T20:30:03.682Z,44.42
2019-02-17T20:32:34.988Z,44.30
2019-02-17T20:35:06.588Z,44.94
2019-02-17T20:37:38.024Z,45.07
2019-02-17T20:40:09.857Z,45.00
2019-02-17T20:42:41.480Z,45.31
2019-02-17T20:45:13.904Z,45.39
2019-02-17T20:47:45.266Z,45.54
2019-02-17T20:50:16.474Z,45.65
2019-02-17T20:52:48.413Z,45.79
2019-02-17T20:55:19.804Z,46.40
2019-02-17T20:57:51.547Z,46.19
2019-02-17T21:00:25.960Z,46.34
2019-02-17T21:02:57.034Z,46.74
2019-02-17T21:05:28.707Z,46.88
2019-02-17T21:07:59.831Z,46.78
2019-02-17T21:10:31.067Z,46.14
2019-02-17T21:13:02.857Z,46.30
2019-02-17T21:15:34.689Z,46.32
2019-02-17T21:18:05.968Z,46.12
2019-02-17T21:20:37.475Z,46.29
2019-02-17T21:23:09.090Z,45.75
2019-02-17T21:25:40.339Z,45.62
2019-02-17T21:28:11.566Z,45.49
2019-02-17T21:30:42.897Z,44.81
2019-02-17T21:33:14.346Z,44.73
2019-02-17T21:35:45.724Z,45.02
2019-02-17T21:38:16.927Z,45.05
2019-02-17T21:40:48.087Z,45.45
2019-02-17T21:43:19.113Z,45.59
2019-02-17T21:45:50.089Z,45.02
2019-02-17T21:48:21.556Z,45.22
2019-02-17T21:50:53.070Z,44.96
2019-02-17T21:53:24.595Z,44.72
2019-02-17T21:55:57.174Z,44.44
2019-02-17T21:58:28.217Z,44.03
2019-02-17T22:00:59.932Z,44.13
2019-02-17T22:03:31.230Z,44.35
2019-02-17T22:06:02.473Z,44.12
2019-02-17T22:08:35.045Z,44.51
2019-02-17T22:11:14.994Z,44.16
2019-02-17T22:13:46.849Z,44.35
2019-02-17T22:16:20.231Z,44.33
2019-02-17T22:18:51.076Z,44.13
2019-02-17T22:21:22.544Z,44.03
2019-02-17T22:23:53.753Z,44.10
2019-02-17T22:26:24.914Z,44.35
2019-02-17T22:28:57.277Z,44.12
2019-02-17T22:31:29.056Z,44.13
2019-02-17T22:34:00.983Z,43.79
2019-02-17T22:36:32.429Z,43.64
2019-02-17T22:39:06.333Z,43.85
2019-02-17T22:41:37.335Z,44.04
2019-02-17T22:44:08.952Z,44.27
2019-02-17T22:46:40.160Z,44.04
2019-02-17T22:49:11.375Z,43.71
2019-02-17T22:51:42.437Z,43.66
2019-02-17T22:54:14.183Z,43.88
2019-02-17T22:56:45.255Z,43.74
2019-02-17T22:59:16.379Z,43.81
2019-02-17T23:01:47.637Z,43.61
2019-02-17T23:04:18.814Z,43.87
2019-02-17T23:06:54.151Z,44.16
2019-02-17T23:09:23.586Z,44.05
2019-02-17T23:11:54.924Z,43.97
2019-02-17T23:14:27.121Z,43.99
2019-02-17T23:16:58.277Z,44.21
2019-02-17T23:19:29.249Z,44.24
2019-02-17T23:22:00.536Z,44.76
2019-02-17T23:24:32.457Z,44.23
2019-02-17T23:27:04.187Z,44.50
2019-02-17T23:29:35.183Z,44.67
2019-02-17T23:32:06.447Z,44.54
2019-02-17T23:34:37.666Z,44.65
2019-02-17T23:37:09.178Z,44.82
2019-02-17T23:39:40.783Z,44.71
2019-02-17T23:42:12.574Z,44.63
2019-02-17T23:44:44.184Z,44.77
2019-02-17T23:47:15.585Z,44.80
2019-02-17T23:49:46.730Z,44.95
2019-02-17T23:52:17.754Z,45.16
2019-02-17T23:54:48.793Z,45.26
2019-02-17T23:57:20.316Z,45.40
2019-02-17T23:59:51.272Z,45.22
